createdAt,value
2022-10-11T00:00:58.296Z,7.29
2022-10-11T00:05:01.250Z,7.31
2022-10-11T00:09:04.153Z,7.12
2022-10-11T00:13:08.943Z,7.11
2022-10-11T00:17:11.805Z,6.97
2022-10-11T00:21:16.904Z,6.94
2022-10-11T00:25:20.298Z,7.01
2022-10-11T00:29:24.569Z,7.04
2022-10-11T00:33:27.610Z,7.13
2022-10-11T00:37:30.279Z,7.28
2022-10-11T00:41:33.198Z,7.04
2022-10-11T00:46:01.904Z,6.90
2022-10-11T00:50:05.858Z,6.94
2022-10-11T00:54:12.483Z,6.60
2022-10-11T00:58:15.441Z,6.55
2022-10-11T01:02:21.652Z,6.44
2022-10-11T01:06:24.856Z,6.31
2022-10-11T01:10:28.732Z,6.30
2022-10-11T01:14:51.389Z,6.35
2022-10-11T01:19:09.905Z,6.33
2022-10-11T01:23:45.106Z,6.44
2022-10-11T01:28:04.577Z,6.43
2022-10-11T01:32:16.426Z,6.30
2022-10-11T01:36:32.827Z,6.26
2022-10-11T01:40:40.863Z,6.11
2022-10-11T01:50:34.805Z,6.05
2022-10-11T01:55:08.531Z,5.86
2022-10-11T01:59:21.619Z,6.03
2022-10-11T02:03:34.479Z,6.09
2022-10-11T02:07:45.690Z,5.90
2022-10-11T02:11:48.488Z,5.85
2022-10-11T02:15:52.521Z,5.74
2022-10-11T02:19:59.755Z,5.65
2022-10-11T02:24:10.686Z,5.62
2022-10-11T02:28:18.517Z,5.68
2022-10-11T02:32:22.610Z,5.66
2022-10-11T02:36:31.406Z,5.46
2022-10-11T02:40:39.062Z,5.57
2022-10-11T02:44:45.467Z,5.40
2022-10-11T02:48:49.259Z,5.43
2022-10-11T02:52:52.131Z,5.60
2022-10-11T02:56:56.175Z,5.70
2022-10-11T03:00:58.956Z,5.55
2022-10-11T03:05:01.826Z,5.46
2022-10-11T03:09:05.339Z,5.34
2022-10-11T03:13:09.599Z,5.41
2022-10-11T03:17:35.129Z,5.45
2022-10-11T03:21:35.971Z,5.42
2022-10-11T03:25:41.860Z,5.35
2022-10-11T03:29:46.061Z,5.33
2022-10-11T03:33:49.019Z,5.32
2022-10-11T03:37:51.797Z,5.40
2022-10-11T03:41:54.614Z,5.30
2022-10-11T03:45:58.815Z,5.17
2022-10-11T03:50:01.584Z,4.97
2022-10-11T03:54:04.643Z,4.92
2022-10-11T03:58:07.464Z,4.90
2022-10-11T04:02:11.717Z,4.99
2022-10-11T04:06:14.569Z,4.85
2022-10-11T04:10:17.821Z,4.88
2022-10-11T04:14:20.555Z,4.93
2022-10-11T04:18:24.667Z,4.81
2022-10-11T04:22:27.371Z,4.68
2022-10-11T04:26:30.264Z,4.68
2022-10-11T04:30:33.001Z,4.64
2022-10-11T04:34:37.129Z,4.79
2022-10-11T04:38:39.831Z,4.74
2022-10-11T04:42:42.594Z,4.62
2022-10-11T04:46:45.460Z,4.55
2022-10-11T04:50:49.555Z,4.48
2022-10-11T04:54:52.274Z,4.44
2022-10-11T04:58:54.999Z,4.35
2022-10-11T05:02:57.770Z,4.42
2022-10-11T05:07:01.896Z,4.41
2022-10-11T05:11:06.872Z,4.45
2022-10-11T05:15:10.912Z,4.41
2022-10-11T05:19:13.641Z,4.30
2022-10-11T05:23:17.839Z,4.38
2022-10-11T05:27:22.732Z,4.22
2022-10-11T05:31:25.726Z,4.25
2022-10-11T05:35:28.478Z,4.60
2022-10-11T05:39:32.875Z,4.61
2022-10-11T05:43:36.532Z,4.39
2022-10-11T05:47:39.481Z,4.31
2022-10-11T05:51:42.554Z,4.68
2022-10-11T05:55:46.626Z,4.60
2022-10-11T05:59:49.536Z,4.42
2022-10-11T06:03:52.727Z,4.33
2022-10-11T06:07:55.585Z,4.25
2022-10-11T06:11:59.780Z,4.15
2022-10-11T06:16:04.946Z,4.17
2022-10-11T06:20:09.156Z,4.25
2022-10-11T06:24:12.412Z,4.31
2022-10-11T06:28:16.513Z,4.37
2022-10-11T06:32:19.445Z,4.58
2022-10-11T06:36:22.876Z,4.59
2022-10-11T06:40:25.767Z,4.68
2022-10-11T06:44:30.486Z,4.77
2022-10-11T06:48:33.217Z,4.98
2022-10-11T06:52:36.081Z,5.26
2022-10-11T06:56:39.163Z,5.62
2022-10-11T07:00:43.433Z,5.99
2022-10-11T07:04:46.418Z,6.22
2022-10-11T07:08:49.666Z,6.54
2022-10-11T07:12:52.410Z,7.44
2022-10-11T07:16:57.407Z,7.99
2022-10-11T07:21:03.358Z,10.00
2022-10-11T07:25:07.020Z,9.85
2022-10-11T07:29:11.642Z,10.50
2022-10-11T07:33:15.972Z,11.50
2022-10-11T07:37:18.858Z,11.52
2022-10-11T07:41:21.930Z,11.46
2022-10-11T07:45:24.643Z,12.36
2022-10-11T07:49:28.922Z,12.35
2022-10-11T07:53:31.659Z,13.17
2022-10-11T07:57:34.477Z,13.91
2022-10-11T08:01:39.147Z,14.14
2022-10-11T08:05:43.314Z,15.02
2022-10-11T08:09:46.044Z,14.86
2022-10-11T08:13:48.769Z,16.34
2022-10-11T08:17:51.630Z,16.86
2022-10-11T08:21:55.922Z,14.74
2022-10-11T08:25:59.373Z,16.88
2022-10-11T08:30:02.381Z,15.48
2022-10-11T08:34:05.466Z,16.06
2022-10-11T08:38:09.720Z,15.33
2022-10-11T08:42:16.655Z,15.56
2022-10-11T08:46:25.067Z,16.41
2022-10-11T08:50:28.030Z,15.12
2022-10-11T08:54:39.539Z,15.70
2022-10-11T08:58:49.313Z,15.52
2022-10-11T09:03:08.504Z,15.39
2022-10-11T09:07:21.991Z,17.50
2022-10-11T09:11:39.874Z,18.33
2022-10-11T09:15:51.772Z,17.57
2022-10-11T09:20:19.921Z,15.59
2022-10-11T09:24:37.992Z,16.73
2022-10-11T09:28:51.570Z,16.85
2022-10-11T09:33:04.408Z,15.79
2022-10-11T09:37:18.991Z,16.48
2022-10-11T09:41:28.089Z,15.07
2022-10-11T09:45:32.267Z,14.61
2022-10-11T09:49:40.392Z,14.54
2022-10-11T09:53:59.073Z,15.92
2022-10-11T09:58:02.752Z,16.04
2022-10-11T10:02:24.593Z,16.82
2022-10-11T10:06:28.513Z,17.08
2022-10-11T10:10:35.472Z,17.37
2022-10-11T10:14:38.466Z,16.17
2022-10-11T10:18:50.574Z,17.96
2022-10-11T10:22:53.593Z,20.20
2022-10-11T10:27:18.159Z,19.16
2022-10-11T10:31:23.776Z,19.43
2022-10-11T10:35:42.101Z,19.31
2022-10-11T10:39:51.230Z,19.87
2022-10-11T10:43:57.536Z,16.99
2022-10-11T10:48:15.240Z,16.78
2022-10-11T10:52:44.115Z,15.87
2022-10-11T10:56:53.282Z,17.56
2022-10-11T11:01:02.058Z,17.73
2022-10-11T11:05:24.162Z,18.33
2022-10-11T11:09:40.905Z,19.18
2022-10-11T11:13:50.996Z,20.60
2022-10-11T11:18:05.574Z,19.73
2022-10-11T11:22:17.221Z,19.85
2022-10-11T11:26:31.473Z,21.57
2022-10-11T11:30:41.600Z,19.94
2022-10-11T11:34:49.037Z,19.48
2022-10-11T11:38:57.862Z,19.96
2022-10-11T11:43:05.944Z,20.56
2022-10-11T11:47:18.010Z,18.44
2022-10-11T11:51:30.456Z,19.47
2022-10-11T11:55:40.823Z,17.83
2022-10-11T11:59:52.659Z,20.52
2022-10-11T12:03:58.486Z,21.27
2022-10-11T12:08:04.305Z,20.83
2022-10-11T12:12:09.150Z,19.28
2022-10-11T12:16:15.680Z,17.37
2022-10-11T12:20:25.347Z,16.89
2022-10-11T12:24:55.425Z,16.43
2022-10-11T12:29:05.423Z,17.75
2022-10-11T12:33:16.223Z,18.08
2022-10-11T12:37:52.074Z,19.28
2022-10-11T12:42:08.017Z,21.41
2022-10-11T12:46:41.231Z,20.67
2022-10-11T12:51:02.899Z,18.29
2022-10-11T12:55:24.510Z,17.78
2022-10-11T12:59:27.477Z,16.46
2022-10-11T13:03:32.973Z,16.13
2022-10-11T13:07:37.527Z,16.50
2022-10-11T13:11:46.027Z,15.70
2022-10-11T13:15:49.800Z,15.77
2022-10-11T13:20:00.583Z,15.79
2022-10-11T13:24:12.043Z,15.28
2022-10-11T13:28:16.780Z,15.54
2022-10-11T13:32:23.858Z,15.32
2022-10-11T13:36:28.373Z,17.59
2022-10-11T13:40:33.284Z,19.33
2022-10-11T13:44:38.384Z,18.60
2022-10-11T13:48:41.919Z,20.47
2022-10-11T13:52:57.046Z,20.33
2022-10-11T13:57:04.993Z,20.04
2022-10-11T14:01:21.418Z,21.03
2022-10-11T14:05:29.482Z,20.02
2022-10-11T14:09:35.018Z,21.43
2022-10-11T14:13:41.829Z,20.66
2022-10-11T14:17:46.528Z,18.66
2022-10-11T14:21:51.561Z,18.48
2022-10-11T14:25:54.385Z,20.30
2022-10-11T14:30:25.221Z,21.25
2022-10-11T14:34:23.388Z,19.79
2022-10-11T14:38:26.256Z,18.57
2022-10-11T14:42:29.214Z,20.50
2022-10-11T14:46:33.521Z,20.99
2022-10-11T14:50:41.484Z,22.37
2022-10-11T14:54:44.393Z,19.36
2022-10-11T14:58:47.169Z,20.17
2022-10-11T15:02:52.810Z,19.92
2022-10-11T15:06:57.068Z,20.18
2022-10-11T15:10:59.781Z,19.66
2022-10-11T15:15:14.719Z,18.71
2022-10-11T15:19:22.197Z,19.69
2022-10-11T15:23:25.156Z,20.16
2022-10-11T15:27:28.890Z,19.71
2022-10-11T15:31:33.171Z,20.80
2022-10-11T15:35:36.086Z,18.28
2022-10-11T15:39:39.033Z,19.40
2022-10-11T15:43:42.572Z,18.90
2022-10-11T15:47:47.245Z,18.92
2022-10-11T15:51:50.050Z,18.98
2022-10-11T15:55:55.578Z,17.64
2022-10-11T15:59:58.478Z,17.66
2022-10-11T16:04:02.695Z,17.02
2022-10-11T16:08:05.775Z,17.47
2022-10-11T16:12:08.627Z,18.24
2022-10-11T16:16:13.048Z,18.42
2022-10-11T16:20:22.262Z,18.73
2022-10-11T16:24:25.200Z,16.80
2022-10-11T16:28:28.971Z,17.13
2022-10-11T16:32:33.606Z,15.81
2022-10-11T16:36:40.904Z,15.21
2022-10-11T16:40:44.704Z,15.15
2022-10-11T16:44:47.553Z,13.91
2022-10-11T16:48:50.723Z,13.58
2022-10-11T16:52:55.879Z,13.24
2022-10-11T16:56:59.489Z,12.13
2022-10-11T17:01:02.726Z,12.10
2022-10-11T17:05:06.450Z,11.98
2022-10-11T17:09:11.142Z,11.60
2022-10-11T17:13:14.109Z,11.09
2022-10-11T17:17:18.288Z,10.93
2022-10-11T17:21:22.829Z,10.62
2022-10-11T17:25:28.234Z,10.45
2022-10-11T17:29:31.033Z,10.22
2022-10-11T17:33:35.112Z,10.00
2022-10-11T17:37:37.885Z,9.88
2022-10-11T17:41:43.247Z,9.73
2022-10-11T17:45:56.054Z,9.61
2022-10-11T17:49:58.774Z,9.49
2022-10-11T17:54:01.574Z,9.38
2022-10-11T17:58:05.701Z,9.21
2022-10-11T18:02:08.563Z,9.09
2022-10-11T18:06:13.494Z,8.92
2022-10-11T18:10:16.426Z,8.86
2022-10-11T18:14:20.840Z,8.75
2022-10-11T18:18:23.742Z,8.65
2022-10-11T18:22:27.165Z,8.60
2022-10-11T18:26:30.989Z,8.50
2022-10-11T18:30:35.231Z,8.42
2022-10-11T18:34:39.080Z,8.39
2022-10-11T18:38:46.422Z,8.36
2022-10-11T18:42:49.333Z,8.30
2022-10-11T18:46:54.085Z,8.22
2022-10-11T18:51:03.343Z,8.17
2022-10-11T18:55:07.271Z,8.08
2022-10-11T18:59:10.925Z,8.05
2022-10-11T19:03:15.047Z,8.07
2022-10-11T19:07:17.810Z,7.87
2022-10-11T19:11:22.572Z,7.82
2022-10-11T19:15:28.722Z,7.79
2022-10-11T19:19:33.789Z,7.69
2022-10-11T19:23:39.504Z,7.56
2022-10-11T19:27:42.221Z,7.51
2022-10-11T19:31:47.647Z,7.63
2022-10-11T19:35:55.882Z,7.41
2022-10-11T19:39:58.990Z,7.33
2022-10-11T19:44:01.721Z,7.32
2022-10-11T19:48:04.633Z,7.20
2022-10-11T19:52:09.509Z,7.12
2022-10-11T19:56:14.378Z,7.10
2022-10-11T20:00:17.984Z,7.01
2022-10-11T20:08:48.214Z,6.93
2022-10-11T20:12:52.982Z,6.82
2022-10-11T20:16:55.714Z,6.95
2022-10-11T20:21:00.292Z,6.91
2022-10-11T20:25:04.513Z,6.79
2022-10-11T20:29:08.075Z,6.75
2022-10-11T20:33:10.820Z,6.90
2022-10-11T20:37:14.066Z,6.76
2022-10-11T20:52:09.204Z,6.43
2022-10-11T20:56:13.955Z,6.32
2022-10-11T21:00:17.198Z,6.46
2022-10-11T21:04:21.387Z,6.46
2022-10-11T21:08:25.687Z,6.30
2022-10-11T21:12:28.580Z,6.22
2022-10-11T21:16:32.214Z,6.25
2022-10-11T21:20:38.834Z,6.19
2022-10-11T21:24:42.923Z,6.28
2022-10-11T21:28:46.495Z,6.21
2022-10-11T21:32:50.802Z,5.99
2022-10-11T21:36:53.562Z,6.01
2022-10-11T21:40:57.762Z,5.92
2022-10-11T21:45:00.509Z,5.86
2022-10-11T21:49:03.555Z,5.88
2022-10-11T21:53:06.321Z,5.73
2022-10-11T21:57:10.555Z,5.64
2022-10-11T22:01:16.369Z,5.58
2022-10-11T22:05:19.280Z,5.52
2022-10-11T22:09:22.267Z,5.53
2022-10-11T22:13:27.223Z,5.52
2022-10-11T22:17:30.080Z,5.44
2022-10-11T22:21:33.090Z,5.28
2022-10-11T22:25:35.957Z,5.31
2022-10-11T22:29:40.193Z,5.22
2022-10-11T22:33:43.052Z,5.12
2022-10-11T22:37:45.810Z,5.13
2022-10-11T22:41:48.548Z,5.06
2022-10-11T22:45:52.618Z,5.04
2022-10-11T22:49:55.475Z,5.07
2022-10-11T22:53:58.385Z,4.92
2022-10-11T22:58:01.291Z,4.89
2022-10-11T23:02:05.533Z,4.88
2022-10-11T23:06:08.695Z,4.81
2022-10-11T23:10:11.568Z,4.82
2022-10-11T23:14:14.476Z,4.95
2022-10-11T23:18:18.917Z,5.11
2022-10-11T23:22:21.700Z,5.07
2022-10-11T23:26:24.420Z,5.01
2022-10-11T23:30:27.368Z,5.14
2022-10-11T23:34:31.443Z,5.01
2022-10-11T23:38:34.385Z,5.08
2022-10-11T23:42:37.133Z,4.81
2022-10-11T23:46:39.993Z,4.72
2022-10-11T23:50:44.833Z,4.65
2022-10-11T23:54:47.502Z,4.82
2022-10-11T23:58:50.321Z,4.96
